sensor_id;sensor_type;location;lat;lon;timestamp;P1;durP1;ratioP1;P2;durP2;ratioP2
71610;SDS011;59459;51.172;6.682;2024-03-08T00:00:26;23.13;;;10.20;;
71610;SDS011;59459;51.172;6.682;2024-03-08T00:02:51;27.15;;;10.90;;
71610;SDS011;59459;51.172;6.682;2024-03-08T00:05:17;25.60;;;10.77;;
71610;SDS011;59459;51.172;6.682;2024-03-08T00:07:43;26.08;;;11.93;;
71610;SDS011;59459;51.172;6.682;2024-03-08T00:10:09;28.73;;;11.57;;
71610;SDS011;59459;51.172;6.682;2024-03-08T00:12:41;24.13;;;11.10;;
71610;SDS011;59459;51.172;6.682;2024-03-08T00:15:09;23.75;;;11.02;;
71610;SDS011;59459;51.172;6.682;2024-03-08T00:17:35;27.95;;;11.13;;
71610;SDS011;59459;51.172;6.682;2024-03-08T00:20:01;23.90;;;10.27;;
71610;SDS011;59459;51.172;6.682;2024-03-08T00:22:28;26.63;;;11.63;;
71610;SDS011;59459;51.172;6.682;2024-03-08T00:24:55;26.30;;;10.98;;
71610;SDS011;59459;51.172;6.682;2024-03-08T00:27:20;29.57;;;12.03;;
71610;SDS011;59459;51.172;6.682;2024-03-08T00:29:46;26.07;;;11.57;;
71610;SDS011;59459;51.172;6.682;2024-03-08T00:32:12;28.15;;;11.55;;
71610;SDS011;59459;51.172;6.682;2024-03-08T00:34:37;24.20;;;12.10;;
71610;SDS011;59459;51.172;6.682;2024-03-08T00:37:03;30.83;;;12.47;;
71610;SDS011;59459;51.172;6.682;2024-03-08T00:39:29;23.25;;;11.32;;
71610;SDS011;59459;51.172;6.682;2024-03-08T00:41:54;27.93;;;11.87;;
71610;SDS011;59459;51.172;6.682;2024-03-08T00:44:19;24.27;;;10.63;;
71610;SDS011;59459;51.172;6.682;2024-03-08T00:46:44;29.00;;;11.93;;
71610;SDS011;59459;51.172;6.682;2024-03-08T00:49:09;26.87;;;10.40;;
71610;SDS011;59459;51.172;6.682;2024-03-08T00:51:34;24.23;;;11.80;;
71610;SDS011;59459;51.172;6.682;2024-03-08T00:54:02;27.58;;;11.75;;
71610;SDS011;59459;51.172;6.682;2024-03-08T00:56:27;23.87;;;10.33;;
71610;SDS011;59459;51.172;6.682;2024-03-08T00:58:52;23.57;;;10.30;;
71610;SDS011;59459;51.172;6.682;2024-03-08T01:01:18;24.42;;;10.45;;
71610;SDS011;59459;51.172;6.682;2024-03-08T01:03:44;28.93;;;10.97;;
71610;SDS011;59459;51.172;6.682;2024-03-08T01:06:09;28.50;;;11.30;;
71610;SDS011;59459;51.172;6.682;2024-03-08T01:08:34;27.50;;;11.67;;
71610;SDS011;59459;51.172;6.682;2024-03-08T01:10:59;29.90;;;11.30;;
71610;SDS011;59459;51.172;6.682;2024-03-08T01:13:25;24.07;;;11.90;;
71610;SDS011;59459;51.172;6.682;2024-03-08T01:15:50;22.23;;;10.47;;
71610;SDS011;59459;51.172;6.682;2024-03-08T01:18:15;27.50;;;11.83;;
71610;SDS011;59459;51.172;6.682;2024-03-08T01:20:40;26.50;;;11.43;;
71610;SDS011;59459;51.172;6.682;2024-03-08T01:23:06;28.35;;;11.55;;
71610;SDS011;59459;51.172;6.682;2024-03-08T01:25:32;25.27;;;10.40;;
71610;SDS011;59459;51.172;6.682;2024-03-08T01:27:58;25.15;;;10.80;;
71610;SDS011;59459;51.172;6.682;2024-03-08T01:30:23;23.70;;;10.70;;
71610;SDS011;59459;51.172;6.682;2024-03-08T01:32:48;28.57;;;11.27;;
71610;SDS011;59459;51.172;6.682;2024-03-08T01:35:13;22.47;;;10.27;;
71610;SDS011;59459;51.172;6.682;2024-03-08T01:37:39;24.37;;;10.93;;
71610;SDS011;59459;51.172;6.682;2024-03-08T01:40:04;27.37;;;11.03;;
71610;SDS011;59459;51.172;6.682;2024-03-08T01:42:29;26.48;;;11.98;;
71610;SDS011;59459;51.172;6.682;2024-03-08T01:44:54;24.73;;;10.13;;
71610;SDS011;59459;51.172;6.682;2024-03-08T01:47:21;24.43;;;10.83;;
71610;SDS011;59459;51.172;6.682;2024-03-08T01:49:48;25.93;;;10.53;;
71610;SDS011;59459;51.172;6.682;2024-03-08T01:52:13;28.00;;;11.38;;
71610;SDS011;59459;51.172;6.682;2024-03-08T01:54:39;25.02;;;11.45;;
71610;SDS011;59459;51.172;6.682;2024-03-08T01:57:06;26.90;;;10.03;;
71610;SDS011;59459;51.172;6.682;2024-03-08T01:59:31;24.90;;;10.13;;
71610;SDS011;59459;51.172;6.682;2024-03-08T02:01:56;27.00;;;10.70;;
71610;SDS011;59459;51.172;6.682;2024-03-08T02:04:25;28.40;;;11.30;;
71610;SDS011;59459;51.172;6.682;2024-03-08T02:06:50;28.50;;;11.60;;
71610;SDS011;59459;51.172;6.682;2024-03-08T02:09:16;28.00;;;11.07;;
71610;SDS011;59459;51.172;6.682;2024-03-08T02:11:42;26.97;;;11.33;;
71610;SDS011;59459;51.172;6.682;2024-03-08T02:14:08;27.27;;;10.27;;
71610;SDS011;59459;51.172;6.682;2024-03-08T02:16:33;27.23;;;10.77;;
71610;SDS011;59459;51.172;6.682;2024-03-08T02:18:58;26.30;;;10.67;;
71610;SDS011;59459;51.172;6.682;2024-03-08T02:21:23;28.33;;;10.83;;
71610;SDS011;59459;51.172;6.682;2024-03-08T02:23:49;26.60;;;10.60;;
71610;SDS011;59459;51.172;6.682;2024-03-08T02:26:17;31.40;;;12.07;;
71610;SDS011;59459;51.172;6.682;2024-03-08T02:28:42;28.23;;;10.43;;
71610;SDS011;59459;51.172;6.682;2024-03-08T02:31:08;26.17;;;10.55;;
71610;SDS011;59459;51.172;6.682;2024-03-08T02:33:34;27.27;;;11.10;;
71610;SDS011;59459;51.172;6.682;2024-03-08T02:35:59;29.10;;;11.40;;
71610;SDS011;59459;51.172;6.682;2024-03-08T02:38:25;25.97;;;10.63;;
71610;SDS011;59459;51.172;6.682;2024-03-08T02:40:51;25.58;;;10.65;;
71610;SDS011;59459;51.172;6.682;2024-03-08T02:43:16;23.97;;;10.43;;
71610;SDS011;59459;51.172;6.682;2024-03-08T02:45:42;29.00;;;11.43;;
71610;SDS011;59459;51.172;6.682;2024-03-08T02:48:09;24.40;;;10.75;;
71610;SDS011;59459;51.172;6.682;2024-03-08T02:50:34;27.93;;;10.90;;
71610;SDS011;59459;51.172;6.682;2024-03-08T02:53:00;29.53;;;11.20;;
71610;SDS011;59459;51.172;6.682;2024-03-08T02:55:25;28.10;;;11.77;;
71610;SDS011;59459;51.172;6.682;2024-03-08T02:57:51;27.07;;;8.93;;
71610;SDS011;59459;51.172;6.682;2024-03-08T03:00:16;26.43;;;10.83;;
71610;SDS011;59459;51.172;6.682;2024-03-08T03:02:41;26.00;;;10.40;;
71610;SDS011;59459;51.172;6.682;2024-03-08T03:05:07;28.48;;;11.70;;
71610;SDS011;59459;51.172;6.682;2024-03-08T03:07:34;33.83;;;12.05;;
71610;SDS011;59459;51.172;6.682;2024-03-08T03:10:00;27.73;;;10.67;;
71610;SDS011;59459;51.172;6.682;2024-03-08T03:12:26;26.67;;;10.30;;
71610;SDS011;59459;51.172;6.682;2024-03-08T03:14:51;28.60;;;10.63;;
71610;SDS011;59459;51.172;6.682;2024-03-08T03:17:17;29.10;;;11.02;;
71610;SDS011;59459;51.172;6.682;2024-03-08T03:19:42;26.43;;;10.73;;
71610;SDS011;59459;51.172;6.682;2024-03-08T03:22:07;29.07;;;11.77;;
71610;SDS011;59459;51.172;6.682;2024-03-08T03:24:34;25.45;;;10.45;;
71610;SDS011;59459;51.172;6.682;2024-03-08T03:27:01;29.88;;;11.55;;
71610;SDS011;59459;51.172;6.682;2024-03-08T03:29:26;24.87;;;10.80;;
71610;SDS011;59459;51.172;6.682;2024-03-08T03:31:51;28.83;;;10.97;;
71610;SDS011;59459;51.172;6.682;2024-03-08T03:34:17;27.83;;;11.23;;
71610;SDS011;59459;51.172;6.682;2024-03-08T03:36:43;24.63;;;9.40;;
71610;SDS011;59459;51.172;6.682;2024-03-08T03:39:10;27.98;;;11.10;;
71610;SDS011;59459;51.172;6.682;2024-03-08T03:41:41;26.65;;;10.43;;
71610;SDS011;59459;51.172;6.682;2024-03-08T03:44:06;26.60;;;10.57;;
71610;SDS011;59459;51.172;6.682;2024-03-08T03:46:32;27.17;;;11.47;;
71610;SDS011;59459;51.172;6.682;2024-03-08T03:48:57;32.20;;;11.50;;
71610;SDS011;59459;51.172;6.682;2024-03-08T03:51:23;28.43;;;11.63;;
71610;SDS011;59459;51.172;6.682;2024-03-08T03:53:48;27.00;;;10.83;;
71610;SDS011;59459;51.172;6.682;2024-03-08T03:56:13;25.57;;;10.13;;
71610;SDS011;59459;51.172;6.682;2024-03-08T03:58:38;25.13;;;11.13;;
71610;SDS011;59459;51.172;6.682;2024-03-08T04:01:04;28.80;;;10.90;;
71610;SDS011;59459;51.172;6.682;2024-03-08T04:03:30;26.67;;;10.50;;
71610;SDS011;59459;51.172;6.682;2024-03-08T04:05:55;28.67;;;11.07;;
71610;SDS011;59459;51.172;6.682;2024-03-08T04:08:20;24.87;;;9.07;;
71610;SDS011;59459;51.172;6.682;2024-03-08T04:10:45;31.33;;;11.17;;
71610;SDS011;59459;51.172;6.682;2024-03-08T04:13:11;27.67;;;10.27;;
71610;SDS011;59459;51.172;6.682;2024-03-08T04:15:36;28.17;;;10.20;;
71610;SDS011;59459;51.172;6.682;2024-03-08T04:18:02;24.45;;;9.57;;
71610;SDS011;59459;51.172;6.682;2024-03-08T04:20:28;28.33;;;10.23;;
71610;SDS011;59459;51.172;6.682;2024-03-08T04:22:53;31.30;;;11.53;;
71610;SDS011;59459;51.172;6.682;2024-03-08T04:25:18;29.87;;;11.40;;
71610;SDS011;59459;51.172;6.682;2024-03-08T04:27:43;24.47;;;10.23;;
71610;SDS011;59459;51.172;6.682;2024-03-08T04:30:09;26.42;;;11.57;;
71610;SDS011;59459;51.172;6.682;2024-03-08T04:32:35;26.07;;;10.43;;
71610;SDS011;59459;51.172;6.682;2024-03-08T04:35:00;30.70;;;11.03;;
71610;SDS011;59459;51.172;6.682;2024-03-08T04:37:28;26.25;;;10.70;;
71610;SDS011;59459;51.172;6.682;2024-03-08T04:39:57;26.50;;;10.68;;
71610;SDS011;59459;51.172;6.682;2024-03-08T04:42:22;26.83;;;11.80;;
71610;SDS011;59459;51.172;6.682;2024-03-08T04:44:47;28.10;;;11.37;;
71610;SDS011;59459;51.172;6.682;2024-03-08T04:47:13;29.30;;;10.33;;
71610;SDS011;59459;51.172;6.682;2024-03-08T04:49:38;31.73;;;12.10;;
71610;SDS011;59459;51.172;6.682;2024-03-08T04:52:03;27.60;;;11.07;;
71610;SDS011;59459;51.172;6.682;2024-03-08T04:54:32;29.58;;;11.80;;
71610;SDS011;59459;51.172;6.682;2024-03-08T04:56:57;28.52;;;10.73;;
71610;SDS011;59459;51.172;6.682;2024-03-08T04:59:24;26.10;;;9.93;;
71610;SDS011;59459;51.172;6.682;2024-03-08T05:01:50;24.57;;;10.77;;
71610;SDS011;59459;51.172;6.682;2024-03-08T05:04:16;25.77;;;9.75;;
71610;SDS011;59459;51.172;6.682;2024-03-08T05:06:41;28.20;;;11.63;;
71610;SDS011;59459;51.172;6.682;2024-03-08T05:09:06;27.90;;;10.77;;
71610;SDS011;59459;51.172;6.682;2024-03-08T05:11:39;24.30;;;10.52;;
71610;SDS011;59459;51.172;6.682;2024-03-08T05:14:04;24.73;;;9.85;;
71610;SDS011;59459;51.172;6.682;2024-03-08T05:16:29;27.43;;;9.97;;
71610;SDS011;59459;51.172;6.682;2024-03-08T05:18:54;28.20;;;10.87;;
71610;SDS011;59459;51.172;6.682;2024-03-08T05:21:21;26.95;;;10.52;;
71610;SDS011;59459;51.172;6.682;2024-03-08T05:23:47;28.43;;;11.23;;
71610;SDS011;59459;51.172;6.682;2024-03-08T05:26:12;27.53;;;11.17;;
71610;SDS011;59459;51.172;6.682;2024-03-08T05:28:37;21.97;;;9.60;;
71610;SDS011;59459;51.172;6.682;2024-03-08T05:31:02;28.90;;;10.27;;
71610;SDS011;59459;51.172;6.682;2024-03-08T05:33:27;26.90;;;11.37;;
71610;SDS011;59459;51.172;6.682;2024-03-08T05:35:53;27.93;;;11.77;;
71610;SDS011;59459;51.172;6.682;2024-03-08T05:38:18;29.85;;;12.07;;
71610;SDS011;59459;51.172;6.682;2024-03-08T05:40:45;27.52;;;10.43;;
71610;SDS011;59459;51.172;6.682;2024-03-08T05:43:10;27.60;;;11.43;;
71610;SDS011;59459;51.172;6.682;2024-03-08T05:45:36;32.53;;;10.97;;
71610;SDS011;59459;51.172;6.682;2024-03-08T05:48:02;28.17;;;11.33;;
71610;SDS011;59459;51.172;6.682;2024-03-08T05:50:27;28.80;;;10.70;;
71610;SDS011;59459;51.172;6.682;2024-03-08T05:52:52;36.40;;;12.77;;
71610;SDS011;59459;51.172;6.682;2024-03-08T05:55:17;36.37;;;12.17;;
71610;SDS011;59459;51.172;6.682;2024-03-08T05:57:42;35.33;;;13.53;;
71610;SDS011;59459;51.172;6.682;2024-03-08T06:00:08;32.20;;;12.63;;
71610;SDS011;59459;51.172;6.682;2024-03-08T06:02:36;28.50;;;12.37;;
71610;SDS011;59459;51.172;6.682;2024-03-08T06:05:05;32.03;;;12.48;;
71610;SDS011;59459;51.172;6.682;2024-03-08T06:07:31;29.60;;;12.90;;
71610;SDS011;59459;51.172;6.682;2024-03-08T06:09:57;30.90;;;12.38;;
71610;SDS011;59459;51.172;6.682;2024-03-08T06:12:23;32.97;;;12.53;;
71610;SDS011;59459;51.172;6.682;2024-03-08T06:14:53;27.83;;;10.98;;
71610;SDS011;59459;51.172;6.682;2024-03-08T06:17:19;29.33;;;11.60;;
71610;SDS011;59459;51.172;6.682;2024-03-08T06:19:44;30.27;;;11.63;;
71610;SDS011;59459;51.172;6.682;2024-03-08T06:22:09;33.53;;;12.10;;
71610;SDS011;59459;51.172;6.682;2024-03-08T06:24:35;25.95;;;10.43;;
71610;SDS011;59459;51.172;6.682;2024-03-08T06:27:01;31.48;;;12.40;;
71610;SDS011;59459;51.172;6.682;2024-03-08T06:29:27;27.30;;;11.83;;
71610;SDS011;59459;51.172;6.682;2024-03-08T06:31:52;30.07;;;10.57;;
71610;SDS011;59459;51.172;6.682;2024-03-08T06:34:18;31.52;;;11.65;;
71610;SDS011;59459;51.172;6.682;2024-03-08T06:36:43;28.87;;;11.60;;
71610;SDS011;59459;51.172;6.682;2024-03-08T06:39:09;32.13;;;12.33;;
71610;SDS011;59459;51.172;6.682;2024-03-08T06:41:37;29.10;;;11.77;;
71610;SDS011;59459;51.172;6.682;2024-03-08T06:44:02;27.63;;;12.18;;
71610;SDS011;59459;51.172;6.682;2024-03-08T06:46:27;29.77;;;11.77;;
71610;SDS011;59459;51.172;6.682;2024-03-08T06:48:53;29.83;;;11.67;;
71610;SDS011;59459;51.172;6.682;2024-03-08T06:51:18;30.43;;;12.57;;
71610;SDS011;59459;51.172;6.682;2024-03-08T06:53:44;36.20;;;13.30;;
71610;SDS011;59459;51.172;6.682;2024-03-08T06:56:09;32.60;;;11.47;;
71610;SDS011;59459;51.172;6.682;2024-03-08T06:58:34;30.77;;;11.73;;
71610;SDS011;59459;51.172;6.682;2024-03-08T07:00:59;34.50;;;12.07;;
71610;SDS011;59459;51.172;6.682;2024-03-08T07:03:28;29.83;;;12.73;;
71610;SDS011;59459;51.172;6.682;2024-03-08T07:05:54;30.50;;;12.10;;
71610;SDS011;59459;51.172;6.682;2024-03-08T07:08:21;28.48;;;11.30;;
71610;SDS011;59459;51.172;6.682;2024-03-08T07:10:48;30.58;;;11.15;;
71610;SDS011;59459;51.172;6.682;2024-03-08T07:13:18;30.70;;;11.93;;
71610;SDS011;59459;51.172;6.682;2024-03-08T07:15:46;30.27;;;11.18;;
71610;SDS011;59459;51.172;6.682;2024-03-08T07:18:11;30.33;;;12.33;;
71610;SDS011;59459;51.172;6.682;2024-03-08T07:20:40;34.40;;;12.13;;
71610;SDS011;59459;51.172;6.682;2024-03-08T07:23:05;31.83;;;11.33;;
71610;SDS011;59459;51.172;6.682;2024-03-08T07:25:30;33.47;;;12.03;;
71610;SDS011;59459;51.172;6.682;2024-03-08T07:27:55;29.07;;;12.60;;
71610;SDS011;59459;51.172;6.682;2024-03-08T07:30:22;29.63;;;12.13;;
71610;SDS011;59459;51.172;6.682;2024-03-08T07:33:06;30.65;;;11.70;;
71610;SDS011;59459;51.172;6.682;2024-03-08T07:35:37;29.83;;;12.03;;
71610;SDS011;59459;51.172;6.682;2024-03-08T07:38:03;31.38;;;11.63;;
71610;SDS011;59459;51.172;6.682;2024-03-08T07:40:29;31.52;;;12.25;;
71610;SDS011;59459;51.172;6.682;2024-03-08T07:42:54;31.70;;;12.97;;
71610;SDS011;59459;51.172;6.682;2024-03-08T07:45:20;31.27;;;12.03;;
71610;SDS011;59459;51.172;6.682;2024-03-08T07:47:47;29.13;;;12.40;;
71610;SDS011;59459;51.172;6.682;2024-03-08T07:50:12;31.40;;;12.53;;
71610;SDS011;59459;51.172;6.682;2024-03-08T07:52:41;31.55;;;12.25;;
71610;SDS011;59459;51.172;6.682;2024-03-08T07:55:06;33.77;;;13.63;;
71610;SDS011;59459;51.172;6.682;2024-03-08T07:57:32;33.67;;;11.53;;
71610;SDS011;59459;51.172;6.682;2024-03-08T07:59:58;29.40;;;11.35;;
71610;SDS011;59459;51.172;6.682;2024-03-08T08:02:23;31.90;;;12.40;;
71610;SDS011;59459;51.172;6.682;2024-03-08T08:04:48;28.17;;;10.63;;
71610;SDS011;59459;51.172;6.682;2024-03-08T08:07:14;32.13;;;11.77;;
71610;SDS011;59459;51.172;6.682;2024-03-08T08:09:39;29.30;;;11.70;;
71610;SDS011;59459;51.172;6.682;2024-03-08T08:12:05;23.03;;;9.73;;
71610;SDS011;59459;51.172;6.682;2024-03-08T08:14:30;28.63;;;12.30;;
71610;SDS011;59459;51.172;6.682;2024-03-08T08:16:56;27.27;;;11.95;;
71610;SDS011;59459;51.172;6.682;2024-03-08T08:19:22;27.03;;;11.03;;
71610;SDS011;59459;51.172;6.682;2024-03-08T08:21:47;27.20;;;12.13;;
71610;SDS011;59459;51.172;6.682;2024-03-08T08:24:12;25.00;;;11.43;;
71610;SDS011;59459;51.172;6.682;2024-03-08T08:26:38;27.37;;;11.43;;
71610;SDS011;59459;51.172;6.682;2024-03-08T08:29:03;22.63;;;10.73;;
71610;SDS011;59459;51.172;6.682;2024-03-08T08:31:29;23.63;;;11.13;;
71610;SDS011;59459;51.172;6.682;2024-03-08T08:33:56;24.03;;;10.93;;
71610;SDS011;59459;51.172;6.682;2024-03-08T08:36:26;26.52;;;11.23;;
71610;SDS011;59459;51.172;6.682;2024-03-08T08:38:51;26.88;;;10.73;;
71610;SDS011;59459;51.172;6.682;2024-03-08T08:41:19;28.30;;;10.43;;
71610;SDS011;59459;51.172;6.682;2024-03-08T08:43:44;22.23;;;9.70;;
71610;SDS011;59459;51.172;6.682;2024-03-08T08:46:10;29.00;;;10.80;;
71610;SDS011;59459;51.172;6.682;2024-03-08T08:48:38;27.50;;;10.48;;
71610;SDS011;59459;51.172;6.682;2024-03-08T08:51:03;23.13;;;8.83;;
71610;SDS011;59459;51.172;6.682;2024-03-08T08:53:31;24.85;;;10.35;;
71610;SDS011;59459;51.172;6.682;2024-03-08T08:55:57;22.55;;;9.25;;
71610;SDS011;59459;51.172;6.682;2024-03-08T08:58:23;23.10;;;10.40;;
71610;SDS011;59459;51.172;6.682;2024-03-08T09:00:48;23.10;;;10.43;;
71610;SDS011;59459;51.172;6.682;2024-03-08T09:03:15;22.02;;;10.20;;
71610;SDS011;59459;51.172;6.682;2024-03-08T09:05:42;21.80;;;9.35;;
71610;SDS011;59459;51.172;6.682;2024-03-08T09:08:08;21.45;;;9.43;;
71610;SDS011;59459;51.172;6.682;2024-03-08T09:10:36;20.13;;;9.32;;
71610;SDS011;59459;51.172;6.682;2024-03-08T09:13:01;20.40;;;9.57;;
71610;SDS011;59459;51.172;6.682;2024-03-08T09:15:29;20.97;;;10.03;;
71610;SDS011;59459;51.172;6.682;2024-03-08T09:17:55;22.45;;;9.63;;
71610;SDS011;59459;51.172;6.682;2024-03-08T09:20:20;20.03;;;9.77;;
71610;SDS011;59459;51.172;6.682;2024-03-08T09:22:45;21.13;;;9.87;;
71610;SDS011;59459;51.172;6.682;2024-03-08T09:25:11;22.70;;;10.27;;
71610;SDS011;59459;51.172;6.682;2024-03-08T09:27:36;17.47;;;8.97;;
71610;SDS011;59459;51.172;6.682;2024-03-08T09:30:02;20.63;;;9.60;;
71610;SDS011;59459;51.172;6.682;2024-03-08T09:32:28;18.08;;;8.55;;
71610;SDS011;59459;51.172;6.682;2024-03-08T09:34:53;19.30;;;8.77;;
71610;SDS011;59459;51.172;6.682;2024-03-08T09:37:20;20.42;;;8.38;;
71610;SDS011;59459;51.172;6.682;2024-03-08T09:39:45;20.23;;;8.63;;
71610;SDS011;59459;51.172;6.682;2024-03-08T09:42:11;20.43;;;9.37;;
71610;SDS011;59459;51.172;6.682;2024-03-08T09:44:43;19.98;;;9.57;;
71610;SDS011;59459;51.172;6.682;2024-03-08T09:47:09;22.35;;;8.85;;
71610;SDS011;59459;51.172;6.682;2024-03-08T09:49:36;18.48;;;8.75;;
71610;SDS011;59459;51.172;6.682;2024-03-08T09:52:02;19.40;;;9.37;;
71610;SDS011;59459;51.172;6.682;2024-03-08T09:54:30;20.65;;;9.15;;
71610;SDS011;59459;51.172;6.682;2024-03-08T09:56:55;19.48;;;8.90;;
71610;SDS011;59459;51.172;6.682;2024-03-08T09:59:21;20.00;;;10.00;;
71610;SDS011;59459;51.172;6.682;2024-03-08T10:01:52;21.95;;;9.68;;
71610;SDS011;59459;51.172;6.682;2024-03-08T10:04:21;23.88;;;10.55;;
71610;SDS011;59459;51.172;6.682;2024-03-08T10:06:46;21.13;;;9.40;;
71610;SDS011;59459;51.172;6.682;2024-03-08T10:09:14;18.83;;;9.25;;
71610;SDS011;59459;51.172;6.682;2024-03-08T10:11:41;19.98;;;8.90;;
71610;SDS011;59459;51.172;6.682;2024-03-08T10:14:08;20.57;;;8.53;;
71610;SDS011;59459;51.172;6.682;2024-03-08T10:16:33;19.05;;;8.15;;
71610;SDS011;59459;51.172;6.682;2024-03-08T10:19:00;19.45;;;7.95;;
71610;SDS011;59459;51.172;6.682;2024-03-08T10:21:25;22.30;;;9.23;;
71610;SDS011;59459;51.172;6.682;2024-03-08T10:23:53;19.07;;;9.17;;
71610;SDS011;59459;51.172;6.682;2024-03-08T10:26:19;18.10;;;8.13;;
71610;SDS011;59459;51.172;6.682;2024-03-08T10:28:49;16.27;;;7.57;;
71610;SDS011;59459;51.172;6.682;2024-03-08T10:31:17;20.15;;;8.43;;
71610;SDS011;59459;51.172;6.682;2024-03-08T10:33:43;16.92;;;7.93;;
71610;SDS011;59459;51.172;6.682;2024-03-08T10:36:09;17.43;;;7.30;;
71610;SDS011;59459;51.172;6.682;2024-03-08T10:38:38;17.48;;;7.88;;
71610;SDS011;59459;51.172;6.682;2024-03-08T10:41:07;17.83;;;8.50;;
71610;SDS011;59459;51.172;6.682;2024-03-08T10:43:37;20.07;;;8.47;;
71610;SDS011;59459;51.172;6.682;2024-03-08T10:46:22;16.02;;;7.57;;
71610;SDS011;59459;51.172;6.682;2024-03-08T10:48:50;17.63;;;8.10;;
71610;SDS011;59459;51.172;6.682;2024-03-08T10:51:17;17.45;;;8.23;;
71610;SDS011;59459;51.172;6.682;2024-03-08T10:53:44;16.27;;;7.05;;
71610;SDS011;59459;51.172;6.682;2024-03-08T10:56:11;16.50;;;7.73;;
71610;SDS011;59459;51.172;6.682;2024-03-08T10:58:39;15.95;;;7.03;;
71610;SDS011;59459;51.172;6.682;2024-03-08T11:01:05;17.85;;;7.88;;
71610;SDS011;59459;51.172;6.682;2024-03-08T11:06:08;15.77;;;8.33;;
71610;SDS011;59459;51.172;6.682;2024-03-08T11:08:37;20.20;;;8.15;;
71610;SDS011;59459;51.172;6.682;2024-03-08T11:11:04;16.58;;;7.72;;
71610;SDS011;59459;51.172;6.682;2024-03-08T11:13:39;19.13;;;8.03;;
71610;SDS011;59459;51.172;6.682;2024-03-08T11:18:54;18.05;;;8.35;;
71610;SDS011;59459;51.172;6.682;2024-03-08T11:21:23;17.65;;;8.13;;
71610;SDS011;59459;51.172;6.682;2024-03-08T11:24:06;16.63;;;7.80;;
71610;SDS011;59459;51.172;6.682;2024-03-08T11:26:52;13.73;;;6.67;;
71610;SDS011;59459;51.172;6.682;2024-03-08T11:34:35;13.30;;;6.50;;
71610;SDS011;59459;51.172;6.682;2024-03-08T11:37:03;17.63;;;7.37;;
71610;SDS011;59459;51.172;6.682;2024-03-08T11:39:28;16.30;;;8.07;;
71610;SDS011;59459;51.172;6.682;2024-03-08T11:41:55;13.50;;;6.22;;
71610;SDS011;59459;51.172;6.682;2024-03-08T11:44:20;15.97;;;7.27;;
71610;SDS011;59459;51.172;6.682;2024-03-08T11:46:46;16.53;;;7.07;;
71610;SDS011;59459;51.172;6.682;2024-03-08T11:49:14;17.75;;;7.93;;
71610;SDS011;59459;51.172;6.682;2024-03-08T11:51:40;14.63;;;7.45;;
71610;SDS011;59459;51.172;6.682;2024-03-08T11:54:06;14.00;;;6.83;;
71610;SDS011;59459;51.172;6.682;2024-03-08T11:56:31;14.40;;;7.20;;
71610;SDS011;59459;51.172;6.682;2024-03-08T11:58:57;15.10;;;7.50;;
71610;SDS011;59459;51.172;6.682;2024-03-08T12:01:23;13.85;;;6.93;;
71610;SDS011;59459;51.172;6.682;2024-03-08T12:03:55;14.93;;;6.53;;
71610;SDS011;59459;51.172;6.682;2024-03-08T12:06:23;15.38;;;7.13;;
71610;SDS011;59459;51.172;6.682;2024-03-08T12:08:49;15.03;;;6.53;;
71610;SDS011;59459;51.172;6.682;2024-03-08T12:11:15;16.13;;;7.03;;
71610;SDS011;59459;51.172;6.682;2024-03-08T12:13:43;14.15;;;6.60;;
71610;SDS011;59459;51.172;6.682;2024-03-08T12:16:11;14.05;;;7.15;;
71610;SDS011;59459;51.172;6.682;2024-03-08T12:18:37;15.07;;;7.10;;
71610;SDS011;59459;51.172;6.682;2024-03-08T12:21:12;14.77;;;7.07;;
71610;SDS011;59459;51.172;6.682;2024-03-08T12:23:39;16.63;;;7.83;;
71610;SDS011;59459;51.172;6.682;2024-03-08T12:28:38;15.60;;;6.80;;
71610;SDS011;59459;51.172;6.682;2024-03-08T12:31:04;15.30;;;7.07;;
71610;SDS011;59459;51.172;6.682;2024-03-08T12:33:35;16.33;;;7.72;;
71610;SDS011;59459;51.172;6.682;2024-03-08T12:36:00;13.50;;;7.20;;
71610;SDS011;59459;51.172;6.682;2024-03-08T12:38:27;14.43;;;6.37;;
71610;SDS011;59459;51.172;6.682;2024-03-08T12:40:57;19.10;;;8.55;;
71610;SDS011;59459;51.172;6.682;2024-03-08T12:43:23;15.03;;;7.17;;
71610;SDS011;59459;51.172;6.682;2024-03-08T12:45:48;13.23;;;7.27;;
71610;SDS011;59459;51.172;6.682;2024-03-08T12:48:13;15.90;;;7.37;;
71610;SDS011;59459;51.172;6.682;2024-03-08T12:50:42;17.50;;;7.85;;
71610;SDS011;59459;51.172;6.682;2024-03-08T12:53:10;17.33;;;6.75;;
71610;SDS011;59459;51.172;6.682;2024-03-08T12:55:35;16.10;;;7.90;;
71610;SDS011;59459;51.172;6.682;2024-03-08T12:58:00;14.40;;;7.50;;
71610;SDS011;59459;51.172;6.682;2024-03-08T13:00:26;15.87;;;7.07;;
71610;SDS011;59459;51.172;6.682;2024-03-08T13:02:53;14.50;;;7.70;;
71610;SDS011;59459;51.172;6.682;2024-03-08T13:05:18;14.03;;;6.93;;
71610;SDS011;59459;51.172;6.682;2024-03-08T13:07:43;15.40;;;7.03;;
71610;SDS011;59459;51.172;6.682;2024-03-08T13:10:11;17.33;;;7.72;;
71610;SDS011;59459;51.172;6.682;2024-03-08T13:12:39;14.50;;;7.20;;
71610;SDS011;59459;51.172;6.682;2024-03-08T13:15:04;16.83;;;7.27;;
71610;SDS011;59459;51.172;6.682;2024-03-08T13:17:30;16.20;;;7.43;;
71610;SDS011;59459;51.172;6.682;2024-03-08T13:19:55;16.77;;;7.60;;
71610;SDS011;59459;51.172;6.682;2024-03-08T13:22:22;14.35;;;6.95;;
71610;SDS011;59459;51.172;6.682;2024-03-08T13:24:49;12.65;;;6.90;;
71610;SDS011;59459;51.172;6.682;2024-03-08T13:27:14;14.43;;;7.43;;
71610;SDS011;59459;51.172;6.682;2024-03-08T13:29:47;14.33;;;6.97;;
71610;SDS011;59459;51.172;6.682;2024-03-08T13:32:15;13.75;;;6.82;;
71610;SDS011;59459;51.172;6.682;2024-03-08T13:34:41;12.53;;;6.43;;
71610;SDS011;59459;51.172;6.682;2024-03-08T13:37:06;13.40;;;6.70;;
71610;SDS011;59459;51.172;6.682;2024-03-08T13:39:32;13.23;;;6.70;;
71610;SDS011;59459;51.172;6.682;2024-03-08T13:42:06;14.90;;;6.47;;
71610;SDS011;59459;51.172;6.682;2024-03-08T13:44:34;14.27;;;6.82;;
71610;SDS011;59459;51.172;6.682;2024-03-08T13:46:59;14.73;;;7.23;;
71610;SDS011;59459;51.172;6.682;2024-03-08T13:49:25;12.57;;;6.53;;
71610;SDS011;59459;51.172;6.682;2024-03-08T13:51:51;14.45;;;6.88;;
71610;SDS011;59459;51.172;6.682;2024-03-08T13:54:16;13.73;;;6.20;;
71610;SDS011;59459;51.172;6.682;2024-03-08T13:56:42;13.20;;;6.73;;
71610;SDS011;59459;51.172;6.682;2024-03-08T13:59:08;13.52;;;6.25;;
71610;SDS011;59459;51.172;6.682;2024-03-08T14:01:34;14.60;;;6.90;;
71610;SDS011;59459;51.172;6.682;2024-03-08T14:04:00;14.40;;;7.35;;
71610;SDS011;59459;51.172;6.682;2024-03-08T14:06:26;13.30;;;6.40;;
71610;SDS011;59459;51.172;6.682;2024-03-08T14:08:51;13.03;;;6.13;;
71610;SDS011;59459;51.172;6.682;2024-03-08T14:11:24;13.70;;;5.93;;
71610;SDS011;59459;51.172;6.682;2024-03-08T14:13:52;12.33;;;5.57;;
71610;SDS011;59459;51.172;6.682;2024-03-08T14:16:18;12.60;;;6.35;;
71610;SDS011;59459;51.172;6.682;2024-03-08T14:18:44;13.68;;;6.40;;
71610;SDS011;59459;51.172;6.682;2024-03-08T14:21:12;18.13;;;7.10;;
71610;SDS011;59459;51.172;6.682;2024-03-08T14:23:37;14.38;;;6.85;;
71610;SDS011;59459;51.172;6.682;2024-03-08T14:26:03;13.03;;;7.00;;
71610;SDS011;59459;51.172;6.682;2024-03-08T14:28:29;13.88;;;6.40;;
71610;SDS011;59459;51.172;6.682;2024-03-08T14:30:54;12.33;;;6.13;;
71610;SDS011;59459;51.172;6.682;2024-03-08T14:33:20;13.90;;;6.37;;